Aérodrome :
LOGIN :

S'inscrire | Disclaimer

   EN    FR    IT 

 










Légende :    VFR   VFR Marginal   IFR   IFR Intensif   IFR Très Intensif
Visi : 
Plafond : 
>= 8 km
>= 3000ft
5 à 8 km
1000 à 3000 ft
1500m à 5 km
500 à 1000 ft
800 à 1500m
200 à 500 ft
< 800m
< 200 ft
Symboles :   Orages  Brouillard  Fortes neiges  Fortes précipitations  Vent > 20 kt
SIGMETs :   Divers  Orages  Givrage  Turbulence  Onde Orograph.  Cendres Volcan.







- Altitude de l'aérodrome : 464 ft
- Code IATA : EVX
- Voir les cartes d'approche


LFOE - Evreux

DERNIER METAR :
  • 160030Z AUTO 00000KT CAVOK 15/13 Q1019 NOSIG

METARs EXPIRÉS :
  • 160000Z AUTO 00000KT CAVOK 15/14 Q1019 NOSIG
  • 152330Z AUTO VRB02KT CAVOK 15/14 Q1019 NOSIG
  • 152300Z AUTO 19002KT CAVOK 16/14 Q1019 NOSIG
  • 152230Z AUTO 23002KT CAVOK 16/14 Q1019 NOSIG
  • 152200Z AUTO 26002KT CAVOK 17/14 Q1019 NOSIG

TAF TAF LFOE
Valide du 15 à 21h jusqu'au 16 à 21h UTC


152000Z 1521/1621 30005KT 9999 SCT035
TEMPO 1603/1607 3000 BR
TEMPO 1612/1615 30010G20KT 4000 -SHRA BKN040TCU
Pas de NOTAMs connus pour ce terrain.



MET'MAP, la Météo Aéronautique d'un coup d'oeil ! - Copyright ORBIFLY Décembre 2007 - Disclaimer

ORBIFLY MET'MAP TEAM :

Programmation & Développement : Alexandra Zaïnal
Conception & Développement : Baudouin d'Aumeries
Co-Programmation & Développement : Marc-Olivier Méhu
Soutien technique & logistique : Manuel Goepfert

Contact : metmap@orbifly.com




SOURCES & CREDITS :

   NOAA